EST,Max TemperatureF,Mean TemperatureF,Min TemperatureF,Max Dew PointF,MeanDew PointF,Min DewpointF,Max Humidity, Mean Humidity, Min Humidity, Max Sea Level PressureIn, Mean Sea Level PressureIn, Min Sea Level PressureIn, Max VisibilityMiles, Mean VisibilityMiles, Min VisibilityMiles, Max Wind SpeedMPH, Mean Wind SpeedMPH, Max Gust SpeedMPH,PrecipitationIn, CloudCover, Events, WindDirDegrees
2013-12-1,50,46,41,34,31,25,61,54,43,30.09,30.05,30.00,10,10,10,12,12,17,0.00,0,,254
2013-12-2,44,38,33,34,32,30,87,74,66,29.90,29.86,29.80,7,5,3,12,10,,0.00,6,,85
2013-12-3,50,42,35,46,43,36,100,97,87,29.86,29.82,29.78,4,2,0,12,10,17,0.00,7,Fog,141
2013-12-4,57,52,48,55,53,48,100,97,94,29.84,29.75,29.67,4,3,0,14,9,18,0.00,8,Fog,147
2013-12-5,39,36,32,34,29,25,81,78,75,30.05,30.01,29.94,10,9,5,17,13,29,0.00,8,Snow,289
2013-12-6,28,26,24,21,20,19,80,76,74,30.30,30.27,30.25,10,10,7,12,9,,0.00,8,Snow,322
2013-12-7,24,17,10,12,12,9,92,71,59,30.61,30.59,30.56,10,10,10,12,9,,0.00,2,,323
2013-12-8,26,24,23,21,19,16,80,78,74,30.33,30.23,30.10,10,4,1,12,12,23,0.00,8,Snow,83
2013-12-9,26,25,24,23,19,16,86,75,64,30.18,30.14,30.09,10,8,2,17,15,29,0.00,8,,269
2013-12-10,26,18,10,10,8,5,79,57,43,30.18,30.15,30.12,10,10,10,17,12,40,0.00,0,,224
2013-12-11,26,22,17,19,17,12,86,78,69,30.35,30.31,30.29,10,8,2,12,10,23,0.00,3,Snow,245
2013-12-12,19,12,6,1,0,0,72,56,45,30.51,30.44,30.35,10,10,10,15,9,20,0.00,0,,194
2013-12-13,30,24,17,18,15,9,68,62,59,30.24,30.20,30.14,10,10,10,12,12,17,0.00,1,,185
2013-12-14,33,32,32,32,32,32,100,98,93,29.95,29.83,29.73,5,3,1,13,10,17,0.00,8,Rain-Snow,82
2013-12-15,19,17,15,14,10,9,80,70,68,30.06,30.04,30.02,10,9,4,23,19,40,0.00,7,Snow,270
2013-12-16,23,19,17,21,16,12,93,83,74,30.12,30.08,30.02,10,6,1,12,10,,0.00,8,,90
2013-12-17,26,22,19,21,20,19,100,89,74,30.09,30.05,30.00,10,5,2,12,11,17,0.00,7,Snow,238
2013-12-18,28,22,17,16,13,10,73,64,55,30.23,30.22,30.19,10,10,10,9,7,,0.00,0,,222
2013-12-19,41,40,39,32,31,28,70,68,65,30.02,29.99,29.97,10,10,10,12,12,17,0.00,4,,179
2013-12-20,53,50,50,52,48,45,100,91,82,29.84,29.82,29.78,7,4,1,12,12,17,0.00,8,Rain,181
2013-12-21,41,39,37,41,39,37,100,99,93,29.82,29.76,29.71,5,4,2,12,9,,0.00,8,Rain,16
2013-12-22,41,40,37,39,37,36,93,93,93,29.88,29.83,29.78,10,10,10,17,15,29,0.00,8,,233
2013-12-23,26,25,24,19,19,18,80,75,69,30.36,30.34,30.29,10,10,10,17,13,29,0.00,8,,270
2013-12-24,17,10,6,7,3,0,73,70,63,30.54,30.53,30.52,10,10,10,12,10,23,0.00,3,,272
2013-12-25,,,,,,,,,,,,,,,,,,,,,,
2013-12-26,35,30,24,18,14,12,64,53,47,30.35,30.32,30.29,10,10,10,12,8,18,0.00,0,,247
2013-12-27,44,37,30,30,27,23,75,64,57,30.37,30.33,30.28,10,10,10,12,9,,0.00,0,,191
2013-12-28,48,42,35,32,31,28,75,63,54,30.21,30.17,30.10,10,10,10,12,12,23,0.00,0,,191
2013-12-29,44,40,35,32,31,30,81,71,57,29.85,29.83,29.80,10,9,5,17,12,29,0.00,5,,234
2013-12-30,21,19,17,16,13,10,86,75,63,30.27,30.23,30.19,10,8,3,12,10,17,0.00,6,Snow,287
2013-12-31,24,21,19,12,12,12,74,69,59,30.35,30.32,30.27,10,7,5,10,7,,0.00,7,Snow,264